Time;durP1;ratioP1;P1;durP2;ratioP2;P2;SDS_P1;SDS_P2;PMS_P1;PMS_P2;Temp;Humidity;BMP_temperature;BMP_pressure;BME280_temperature;BME280_humidity;BME280_pressure;Samples;Min_cycle;Max_cycle;Signal;HPM_P1;HPM_P2
2023/10/23 00:00:38;;;;;;;8.52;4.13;;;;;;;10.13;100.00;101185.00;5032579;28;20451;-73
2023/10/23 00:03:03;;;;;;;6.65;3.53;;;;;;;10.12;100.00;101188.69;5032296;28;20075;-73
2023/10/23 00:05:30;;;;;;;8.98;4.38;;;;;;;10.09;100.00;101181.91;5032383;28;20029;-73
2023/10/23 00:07:55;;;;;;;8.98;4.50;;;;;;;10.09;100.00;101187.22;5049985;28;20029;-73
2023/10/23 00:10:20;;;;;;;7.35;4.53;;;;;;;10.05;100.00;101190.44;5050040;28;20531;-74
2023/10/23 00:12:47;;;;;;;8.88;4.40;;;;;;;10.02;100.00;101194.28;5049215;28;20974;-73
2023/10/23 00:15:13;;;;;;;6.63;4.00;;;;;;;9.98;100.00;101201.03;5050108;28;20082;-74
2023/10/23 00:17:38;;;;;;;10.82;4.50;;;;;;;9.96;100.00;101196.88;5050016;28;20051;-74
2023/10/23 00:20:04;;;;;;;10.18;4.85;;;;;;;9.94;100.00;101194.41;5050122;28;20094;-74
2023/10/23 00:22:29;;;;;;;8.73;5.18;;;;;;;9.89;100.00;101199.44;5049940;28;20020;-74
2023/10/23 00:24:55;;;;;;;7.65;4.20;;;;;;;9.81;100.00;101186.22;5049864;28;20039;-74
2023/10/23 00:27:20;;;;;;;10.65;4.38;;;;;;;9.84;100.00;101196.50;5049853;28;21044;-73
2023/10/23 00:29:45;;;;;;;7.90;4.85;;;;;;;9.83;100.00;101192.19;5049702;28;20043;-74
2023/10/23 00:32:11;;;;;;;9.05;4.57;;;;;;;9.80;100.00;101198.72;5049848;28;20025;-74
2023/10/23 00:34:36;;;;;;;14.32;5.53;;;;;;;9.80;100.00;101189.91;5031997;28;20028;-74
2023/10/23 00:37:02;;;;;;;12.23;5.50;;;;;;;9.77;100.00;101188.44;5049497;28;20471;-74
2023/10/23 00:39:27;;;;;;;7.32;4.85;;;;;;;9.77;100.00;101193.75;5049699;28;20037;-74
2023/10/23 00:41:52;;;;;;;10.70;5.07;;;;;;;9.76;100.00;101193.94;5049747;28;20102;-74
2023/10/23 00:44:18;;;;;;;8.85;4.90;;;;;;;9.70;100.00;101200.81;5031545;28;20148;-74
2023/10/23 00:46:43;;;;;;;7.18;3.72;;;;;;;9.59;100.00;101201.28;5031476;28;20029;-74
2023/10/23 00:49:09;;;;;;;7.75;4.03;;;;;;;9.56;100.00;101197.13;5049623;28;20037;-74
2023/10/23 00:51:35;;;;;;;6.85;4.47;;;;;;;9.52;100.00;101198.50;5049333;28;20021;-74
2023/10/23 00:54:02;;;;;;;6.03;3.92;;;;;;;9.47;100.00;101192.06;5049495;28;20036;-74
2023/10/23 00:56:28;;;;;;;6.15;3.80;;;;;;;9.46;100.00;101198.38;5049447;28;20029;-74
2023/10/23 00:58:54;;;;;;;7.07;3.90;;;;;;;9.47;100.00;101200.06;5049561;28;20033;-74
2023/10/23 01:01:19;;;;;;;9.70;4.30;;;;;;;9.52;100.00;101203.81;5031776;28;20490;-74
2023/10/23 01:03:45;;;;;;;9.75;4.70;;;;;;;9.57;100.00;101213.94;5049390;28;20044;-74
2023/10/23 01:06:12;;;;;;;8.32;4.28;;;;;;;9.59;100.00;101202.09;5049538;28;20415;-74
2023/10/23 01:08:38;;;;;;;9.18;4.88;;;;;;;9.57;100.00;101201.44;5049466;28;20033;-74
2023/10/23 01:11:03;;;;;;;8.20;3.72;;;;;;;9.60;100.00;101211.72;5049417;28;20057;-74
2023/10/23 01:13:30;;;;;;;11.93;4.63;;;;;;;9.60;100.00;101210.91;5031394;28;20132;-73
2023/10/23 01:15:56;;;;;;;10.48;3.60;;;;;;;9.62;100.00;101214.22;5049260;28;20025;-73
2023/10/23 01:18:21;;;;;;;5.90;3.60;;;;;;;9.61;100.00;101221.34;5049363;28;20127;-73
2023/10/23 01:20:48;;;;;;;11.95;3.78;;;;;;;9.60;100.00;101216.22;5049298;28;20025;-73
2023/10/23 01:23:13;;;;;;;7.47;3.97;;;;;;;9.61;100.00;101216.03;5050177;28;20036;-73
2023/10/23 01:25:39;;;;;;;9.38;4.03;;;;;;;9.60;100.00;101209.06;5053168;28;20029;-73
2023/10/23 01:28:04;;;;;;;8.35;3.83;;;;;;;9.62;100.00;101223.03;5052899;28;20471;-73
2023/10/23 01:30:30;;;;;;;6.65;4.82;;;;;;;9.63;100.00;101223.84;5053047;28;20056;-73
2023/10/23 01:32:56;;;;;;;7.68;3.95;;;;;;;9.62;100.00;101223.03;5034955;28;20418;-73
2023/10/23 01:35:22;;;;;;;6.90;3.65;;;;;;;9.62;100.00;101217.69;5052888;28;20032;-73
2023/10/23 01:37:47;;;;;;;8.43;4.47;;;;;;;9.61;100.00;101224.03;5052787;28;20104;-73
2023/10/23 01:40:13;;;;;;;7.93;4.00;;;;;;;9.57;100.00;101224.59;5052824;28;20053;-73
2023/10/23 01:42:39;;;;;;;8.85;3.92;;;;;;;9.55;100.00;101219.44;5034785;28;20111;-73
2023/10/23 01:45:05;;;;;;;7.78;3.55;;;;;;;9.51;100.00;101218.16;5052568;28;20037;-74
2023/10/23 01:47:30;;;;;;;10.18;4.40;;;;;;;9.55;100.00;101206.13;5052704;28;20028;-74
2023/10/23 01:49:56;;;;;;;8.75;3.97;;;;;;;9.54;100.00;101207.13;5034795;28;20440;-73
2023/10/23 01:52:21;;;;;;;6.65;3.90;;;;;;;9.54;100.00;101208.97;5034858;28;20082;-73
2023/10/23 01:54:50;;;;;;;11.68;4.05;;;;;;;9.53;100.00;101208.13;5052628;28;20082;-73
2023/10/23 01:57:15;;;;;;;6.97;3.90;;;;;;;9.52;100.00;101211.00;5052482;28;20028;-73
2023/10/23 01:59:40;;;;;;;10.00;4.57;;;;;;;9.51;100.00;101204.00;5034559;28;20132;-74
2023/10/23 02:02:06;;;;;;;5.07;3.47;;;;;;;9.52;100.00;101208.31;5052520;28;20025;-74
2023/10/23 02:04:33;;;;;;;14.07;4.18;;;;;;;9.47;100.00;101208.03;5052455;28;20388;-74
2023/10/23 02:06:59;;;;;;;7.50;3.63;;;;;;;9.50;100.00;101219.13;5052394;28;20423;-74
2023/10/23 02:09:24;;;;;;;8.73;4.28;;;;;;;9.48;100.00;101207.00;5052335;28;20124;-74
2023/10/23 02:11:49;;;;;;;5.75;3.53;;;;;;;9.44;100.00;101209.22;5051845;28;20061;-74
2023/10/23 02:14:15;;;;;;;12.20;4.10;;;;;;;9.41;100.00;101212.25;5052139;28;20037;-74
2023/10/23 02:16:40;;;;;;;6.95;3.65;;;;;;;9.36;100.00;101211.97;5051843;28;20481;-74
2023/10/23 02:19:06;;;;;;;8.38;3.83;;;;;;;9.36;100.00;101217.28;5052117;28;20033;-74
2023/10/23 02:21:31;;;;;;;8.38;4.45;;;;;;;9.34;100.00;101222.78;5051970;28;20025;-74
2023/10/23 02:23:57;;;;;;;7.05;4.07;;;;;;;9.32;100.00;101224.78;5034135;28;20060;-74
2023/10/23 02:26:22;;;;;;;6.65;3.72;;;;;;;9.30;100.00;101223.31;5051956;28;20025;-74
2023/10/23 02:28:47;;;;;;;8.25;4.05;;;;;;;9.30;100.00;101221.50;5051954;28;20078;-74
2023/10/23 02:31:14;;;;;;;13.82;4.13;;;;;;;9.32;100.00;101227.44;5051928;28;20033;-74
2023/10/23 02:33:39;;;;;;;10.70;5.32;;;;;;;9.29;100.00;101234.97;5052005;28;20425;-74
2023/10/23 02:36:05;;;;;;;7.07;3.72;;;;;;;9.28;100.00;101233.31;5033047;28;20120;-74
2023/10/23 02:38:30;;;;;;;11.70;4.60;;;;;;;9.28;100.00;101243.97;5051795;28;20128;-74
2023/10/23 02:40:56;;;;;;;11.90;5.68;;;;;;;9.26;100.00;101240.66;5033705;28;20037;-74
2023/10/23 02:43:21;;;;;;;9.48;3.92;;;;;;;9.27;100.00;101239.63;5051630;28;20029;-74
2023/10/23 02:45:47;;;;;;;11.63;4.00;;;;;;;9.24;100.00;101248.81;5051683;28;20053;-74
2023/10/23 02:48:13;;;;;;;9.35;4.20;;;;;;;9.17;100.00;101240.72;5051820;28;20033;-74
2023/10/23 02:50:38;;;;;;;8.95;3.70;;;;;;;9.20;100.00;101259.00;5051466;28;20106;-74
2023/10/23 02:53:05;;;;;;;9.25;3.55;;;;;;;9.19;100.00;101248.50;5051439;28;20031;-74
2023/10/23 02:55:31;;;;;;;8.35;3.58;;;;;;;9.18;100.00;101253.00;5051534;28;20508;-74
2023/10/23 02:57:57;;;;;;;9.90;4.47;;;;;;;9.17;100.00;101251.38;5051292;28;20037;-74
2023/10/23 03:00:22;;;;;;;9.93;4.30;;;;;;;9.15;100.00;101250.72;5051405;28;20447;-74
2023/10/23 03:02:48;;;;;;;7.47;4.38;;;;;;;9.13;100.00;101252.72;5051301;28;20032;-74
2023/10/23 03:05:14;;;;;;;6.85;3.38;;;;;;;9.02;100.00;101244.31;5051272;28;20031;-74
2023/10/23 03:07:39;;;;;;;5.63;3.47;;;;;;;8.94;100.00;101250.53;5051313;28;20059;-74
2023/10/23 03:10:05;;;;;;;6.43;3.60;;;;;;;8.90;100.00;101244.72;5051126;28;20112;-74
2023/10/23 03:12:31;;;;;;;9.98;3.30;;;;;;;8.88;100.00;101248.56;5051232;28;20645;-74
2023/10/23 03:14:56;;;;;;;9.77;5.30;;;;;;;8.87;100.00;101249.56;5051036;28;20056;-74
2023/10/23 03:17:22;;;;;;;8.45;4.47;;;;;;;8.84;100.00;101239.28;5033339;28;20033;-74
2023/10/23 03:19:47;;;;;;;6.93;4.43;;;;;;;8.82;100.00;101231.47;5050836;28;20154;-74
2023/10/23 03:22:12;;;;;;;7.68;4.82;;;;;;;8.77;100.00;101234.66;5033183;28;20029;-74
2023/10/23 03:24:38;;;;;;;8.07;3.83;;;;;;;8.85;100.00;101247.06;5050791;28;20159;-74
2023/10/23 03:27:04;;;;;;;8.85;3.65;;;;;;;8.85;100.00;101240.94;5032832;28;20043;-74
2023/10/23 03:29:30;;;;;;;7.82;4.13;;;;;;;8.81;100.00;101240.47;5050752;28;20031;-74
2023/10/23 03:31:55;;;;;;;7.28;3.80;;;;;;;8.78;100.00;101241.63;5050846;28;20048;-74
2023/10/23 03:34:20;;;;;;;6.40;3.63;;;;;;;8.71;100.00;101246.00;5050844;28;20392;-74
2023/10/23 03:36:46;;;;;;;10.20;4.53;;;;;;;8.75;100.00;101251.78;5050659;28;20747;-74
2023/10/23 03:39:11;;;;;;;8.88;4.57;;;;;;;8.72;100.00;101252.13;5050496;28;20025;-74
2023/10/23 03:41:37;;;;;;;6.95;3.30;;;;;;;8.69;100.00;101250.66;5050379;28;20040;-74
2023/10/23 03:44:03;;;;;;;7.68;3.55;;;;;;;8.58;100.00;101255.53;5050424;28;20119;-74
2023/10/23 03:46:29;;;;;;;8.65;3.70;;;;;;;8.49;100.00;101254.75;5050354;28;20032;-74
2023/10/23 03:48:56;;;;;;;8.07;3.40;;;;;;;8.27;100.00;101249.13;5050400;28;20035;-74
2023/10/23 03:51:21;;;;;;;7.53;3.08;;;;;;;8.18;100.00;101250.19;5050465;28;20040;-74
2023/10/23 03:53:47;;;;;;;5.40;3.13;;;;;;;8.20;100.00;101260.63;5050300;28;20036;-74
2023/10/23 03:56:12;;;;;;;12.73;4.38;;;;;;;8.21;100.00;101255.16;5032338;28;20040;-74
2023/10/23 03:58:37;;;;;;;8.30;3.53;;;;;;;8.16;100.00;101254.84;5050110;28;20037;-74
2023/10/23 04:01:03;;;;;;;6.07;3.03;;;;;;;8.13;100.00;101253.34;5050308;28;20388;-74
2023/10/23 04:03:28;;;;;;;5.85;3.22;;;;;;;8.13;100.00;101258.66;5050014;28;20434;-74
2023/10/23 04:05:54;;;;;;;4.00;2.70;;;;;;;8.14;100.00;101259.47;5032206;28;20084;-74
2023/10/23 04:08:19;;;;;;;11.23;3.25;;;;;;;8.12;100.00;101264.13;5049994;28;20027;-74
2023/10/23 04:10:46;;;;;;;7.93;3.45;;;;;;;8.08;100.00;101265.47;5049788;28;20057;-74
2023/10/23 04:13:12;;;;;;;6.35;3.92;;;;;;;8.07;100.00;101262.00;5032236;28;20051;-74
2023/10/23 04:15:37;;;;;;;8.05;3.40;;;;;;;8.06;100.00;101264.81;5049980;28;20488;-74
2023/10/23 04:18:03;;;;;;;8.63;4.07;;;;;;;8.12;100.00;101259.66;5031999;28;20040;-74
2023/10/23 04:20:29;;;;;;;8.23;3.63;;;;;;;8.13;100.00;101269.28;5049980;28;20025;-74
2023/10/23 04:22:54;;;;;;;8.32;4.07;;;;;;;8.10;100.00;101266.97;5063696;28;20039;-74
2023/10/23 04:25:20;;;;;;;7.70;3.55;;;;;;;8.10;100.00;101263.50;5051274;28;20482;-74
2023/10/23 04:27:45;;;;;;;7.93;3.63;;;;;;;8.09;100.00;101257.31;5049804;28;20067;-74
2023/10/23 04:30:11;;;;;;;7.22;3.35;;;;;;;8.11;100.00;101259.81;5032070;28;20078;-74
2023/10/23 04:32:36;;;;;;;4.85;3.35;;;;;;;8.09;100.00;101260.00;5049723;28;20033;-73
2023/10/23 04:35:02;;;;;;;7.82;3.33;;;;;;;8.10;100.00;101263.50;5049786;28;20033;-73
2023/10/23 04:37:27;;;;;;;7.75;4.20;;;;;;;8.04;100.00;101258.84;5049544;28;20033;-74
2023/10/23 04:39:53;;;;;;;6.20;3.35;;;;;;;8.02;100.00;101255.56;5049800;28;20128;-72
2023/10/23 04:42:18;;;;;;;8.10;3.65;;;;;;;7.94;100.00;101275.00;5052404;28;20040;-72
2023/10/23 04:44:47;;;;;;;9.65;3.88;;;;;;;7.87;100.00;101260.72;5061641;28;20039;-72
2023/10/23 04:47:13;;;;;;;6.63;2.85;;;;;;;7.90;100.00;101276.31;5049441;28;20107;-72
2023/10/23 04:49:38;;;;;;;9.27;4.03;;;;;;;7.90;100.00;101277.13;5055619;28;21068;-72
2023/10/23 04:52:04;;;;;;;14.25;4.13;;;;;;;7.90;100.00;101268.34;5068706;28;20029;-72
2023/10/23 04:54:29;;;;;;;11.23;3.70;;;;;;;7.87;100.00;101272.16;5068533;28;20480;-72
2023/10/23 04:56:54;;;;;;;5.50;2.83;;;;;;;7.89;100.00;101262.22;5051314;28;20094;-72
2023/10/23 04:59:20;;;;;;;4.75;3.33;;;;;;;7.93;100.00;101268.00;5062882;28;20033;-72
2023/10/23 05:01:45;;;;;;;9.85;3.95;;;;;;;7.97;100.00;101265.84;5063965;28;20039;-72
2023/10/23 05:04:10;;;;;;;7.85;3.67;;;;;;;7.94;100.00;101259.06;5053469;28;20483;-73
2023/10/23 05:06:36;;;;;;;5.95;3.47;;;;;;;7.97;100.00;101260.53;5045828;28;20494;-73
2023/10/23 05:09:02;;;;;;;7.53;3.70;;;;;;;7.94;100.00;101263.50;5058396;28;20032;-73
2023/10/23 05:11:28;;;;;;;5.82;3.25;;;;;;;7.79;100.00;101258.06;5053019;28;20049;-73
2023/10/23 05:13:53;;;;;;;7.40;3.50;;;;;;;7.79;100.00;101258.06;5036917;28;20086;-73
2023/10/23 05:16:18;;;;;;;7.47;3.65;;;;;;;7.80;100.00;101262.38;5061400;28;20106;-73
2023/10/23 05:18:44;;;;;;;7.38;4.15;;;;;;;7.78;100.00;101264.38;5060723;28;20490;-73
2023/10/23 05:21:11;;;;;;;8.50;2.95;;;;;;;7.71;100.00;101264.22;5061022;28;20114;-73
2023/10/23 05:23:40;;;;;;;6.70;2.80;;;;;;;7.65;100.00;101264.88;5054096;28;20034;-73
2023/10/23 05:26:15;;;;;;;12.00;2.85;;;;;;;7.57;100.00;101265.75;5061148;28;20415;-73
2023/10/23 05:28:41;;;;;;;7.28;3.15;;;;;;;7.52;100.00;101262.75;5055598;28;20033;-73
2023/10/23 05:31:10;;;;;;;5.18;2.55;;;;;;;7.44;100.00;101266.22;5068799;28;20036;-73
2023/10/23 05:33:35;;;;;;;7.25;2.80;;;;;;;7.33;100.00;101266.53;5071915;28;20056;-73
2023/10/23 05:36:05;;;;;;;7.85;3.75;;;;;;;7.24;100.00;101270.19;5055470;28;20079;-73
2023/10/23 05:38:35;;;;;;;4.97;2.72;;;;;;;7.21;100.00;101254.63;5055110;28;20033;-73
2023/10/23 05:41:02;;;;;;;4.20;2.58;;;;;;;7.17;100.00;101266.53;5068914;28;20047;-73
2023/10/23 05:43:28;;;;;;;3.80;2.40;;;;;;;7.16;100.00;101256.94;5054293;28;20025;-73
2023/10/23 05:45:57;;;;;;;6.95;2.85;;;;;;;7.18;100.00;101266.38;5041886;28;20033;-73
2023/10/23 05:48:22;;;;;;;5.25;2.95;;;;;;;7.17;100.00;101263.88;5063164;28;20055;-73
2023/10/23 05:51:03;;;;;;;5.57;2.58;;;;;;;7.21;100.00;101259.91;5063224;28;20071;-72
2023/10/23 05:53:29;;;;;;;15.65;3.38;;;;;;;7.21;100.00;101267.88;5058163;28;20028;-72
2023/10/23 05:56:00;;;;;;;3.90;2.58;;;;;;;7.17;100.00;101271.84;5070758;28;20109;-73
2023/10/23 05:58:26;;;;;;;6.93;2.92;;;;;;;7.15;100.00;101277.31;5071489;28;20024;-73
2023/10/23 06:00:51;;;;;;;10.30;2.85;;;;;;;7.14;100.00;101275.66;5071406;28;20098;-72
2023/10/23 06:03:16;;;;;;;8.13;2.38;;;;;;;7.03;100.00;101258.22;5042198;28;20036;-72
2023/10/23 06:05:42;;;;;;;5.20;2.70;;;;;;;7.07;100.00;101271.16;5071277;28;20060;-73
2023/10/23 06:08:08;;;;;;;5.07;2.33;;;;;;;7.05;100.00;101265.19;5063968;28;20029;-73
2023/10/23 06:10:44;;;;;;;9.15;2.83;;;;;;;7.06;100.00;101264.22;5054285;28;20056;-73
2023/10/23 06:13:10;;;;;;;9.90;3.60;;;;;;;7.05;100.00;101266.03;5064582;28;20035;-73
2023/10/23 06:15:35;;;;;;;5.80;2.65;;;;;;;7.02;100.00;101267.19;5066620;28;20037;-72
2023/10/23 06:18:02;;;;;;;4.78;2.88;;;;;;;7.01;100.00;101273.47;5031934;28;20028;-72
2023/10/23 06:20:27;;;;;;;7.70;2.55;;;;;;;6.97;100.00;101272.16;5058056;28;20041;-72
2023/10/23 06:22:53;;;;;;;9.30;2.85;;;;;;;6.87;100.00;101255.56;5051924;28;20392;-72
2023/10/23 06:25:18;;;;;;;4.95;3.00;;;;;;;6.95;100.00;101274.13;5051805;28;20131;-72
2023/10/23 06:27:43;;;;;;;4.20;2.67;;;;;;;6.92;100.00;101274.47;5054372;28;20036;-72
2023/10/23 06:30:09;;;;;;;4.60;2.70;;;;;;;6.84;100.00;101265.63;5040553;28;20582;-73
2023/10/23 06:32:35;;;;;;;5.25;2.88;;;;;;;6.85;100.00;101276.09;5051795;28;20055;-73
2023/10/23 06:35:01;;;;;;;7.55;3.65;;;;;;;6.83;100.00;101278.06;5045305;28;20119;-73
2023/10/23 06:37:26;;;;;;;7.68;3.00;;;;;;;6.82;100.00;101263.16;5061484;28;20105;-73
2023/10/23 06:39:51;;;;;;;7.60;3.92;;;;;;;6.88;100.00;101274.94;5062446;28;20112;-73
2023/10/23 06:42:17;;;;;;;4.72;2.72;;;;;;;6.89;100.00;101280.09;5056970;28;20388;-74
2023/10/23 06:44:42;;;;;;;4.53;2.63;;;;;;;6.88;100.00;101278.41;5062564;28;20086;-74
2023/10/23 06:47:10;;;;;;;3.40;2.35;;;;;;;6.90;100.00;101279.09;5066200;28;20033;-73
2023/10/23 06:49:37;;;;;;;7.13;2.83;;;;;;;6.91;100.00;101277.25;5061532;28;20459;-75
2023/10/23 06:52:04;;;;;;;9.15;3.53;;;;;;;6.90;100.00;101271.13;5062333;28;20044;-75
2023/10/23 06:54:29;;;;;;;6.15;3.17;;;;;;;6.98;100.00;101281.75;5060924;28;20391;-75
2023/10/23 06:56:54;;;;;;;7.90;3.40;;;;;;;7.02;100.00;101269.84;5042802;28;20033;-72
2023/10/23 06:59:20;;;;;;;7.18;2.90;;;;;;;7.02;100.00;101261.03;5063755;28;20384;-74
2023/10/23 07:01:45;;;;;;;4.30;2.40;;;;;;;7.05;100.00;101270.47;5043545;28;20036;-73
2023/10/23 07:04:11;;;;;;;10.77;4.07;;;;;;;7.14;100.00;101266.88;5035502;28;20101;-73
2023/10/23 07:06:36;;;;;;;8.05;3.55;;;;;;;7.17;100.00;101262.06;5062674;28;20020;-74
2023/10/23 07:09:01;;;;;;;13.45;5.28;;;;;;;7.27;100.00;101269.03;5062405;28;20033;-73
2023/10/23 07:11:27;;;;;;;7.70;3.75;;;;;;;7.33;100.00;101271.84;5061078;28;20063;-73
2023/10/23 07:13:52;;;;;;;7.30;3.30;;;;;;;7.38;100.00;101277.50;5065658;28;20036;-74
2023/10/23 07:16:18;;;;;;;13.85;4.57;;;;;;;7.41;100.00;101263.06;5039952;28;20384;-73
2023/10/23 07:18:43;;;;;;;11.25;4.65;;;;;;;7.46;100.00;101261.56;5039014;28;20043;-73
2023/10/23 07:21:09;;;;;;;10.52;3.90;;;;;;;7.53;100.00;101271.53;5047461;28;20074;-73
2023/10/23 07:23:34;;;;;;;10.52;5.47;;;;;;;7.58;100.00;101272.69;5061781;28;20033;-73
2023/10/23 07:26:07;;;;;;;9.15;4.60;;;;;;;7.64;100.00;101274.66;5057326;28;20120;-74
2023/10/23 07:28:34;;;;;;;13.05;6.32;;;;;;;7.71;100.00;101271.38;5058750;28;20554;-69
2023/10/23 07:31:02;;;;;;;9.95;4.43;;;;;;;7.74;100.00;101263.88;5067192;28;20032;-70
2023/10/23 07:33:28;;;;;;;10.10;4.82;;;;;;;7.85;100.00;101271.50;5060679;28;20116;-73
2023/10/23 07:36:07;;;;;;;7.75;4.28;;;;;;;7.90;100.00;101271.00;5055640;28;20115;-71
2023/10/23 07:38:33;;;;;;;12.05;5.53;;;;;;;7.95;100.00;101267.84;5053751;28;20519;-71
2023/10/23 07:40:59;;;;;;;11.27;5.53;;;;;;;8.00;100.00;101258.38;5064263;28;20036;-69
2023/10/23 07:43:28;;;;;;;10.35;5.93;;;;;;;8.05;100.00;101265.84;5050905;28;20524;-71
2023/10/23 07:45:55;;;;;;;10.75;4.80;;;;;;;8.09;100.00;101267.97;5057898;28;20040;-72
2023/10/23 07:48:22;;;;;;;14.52;5.03;;;;;;;8.11;100.00;101268.63;5050694;28;20017;-71
2023/10/23 07:50:47;;;;;;;9.10;4.53;;;;;;;8.18;100.00;101268.78;5033219;28;20025;-71
2023/10/23 07:53:13;;;;;;;11.32;5.90;;;;;;;8.22;100.00;101267.44;5057504;28;20104;-71
2023/10/23 07:55:38;;;;;;;12.27;5.75;;;;;;;8.30;100.00;101272.72;5051131;28;20494;-71
2023/10/23 07:58:03;;;;;;;12.43;5.47;;;;;;;8.34;100.00;101275.88;5034139;28;20086;-75
2023/10/23 08:00:29;;;;;;;12.50;5.70;;;;;;;8.47;100.00;101278.84;5045846;28;20419;-75
2023/10/23 08:02:55;;;;;;;11.93;5.82;;;;;;;8.60;100.00;101275.63;5037408;28;20122;-75
2023/10/23 08:05:21;;;;;;;13.77;5.80;;;;;;;8.72;100.00;101273.41;5057546;28;20047;-75
2023/10/23 08:07:46;;;;;;;14.80;6.75;;;;;;;8.83;100.00;101273.03;5055064;28;20480;-75
2023/10/23 08:10:12;;;;;;;11.18;5.43;;;;;;;8.92;100.00;101271.97;5048563;28;20055;-74
2023/10/23 08:12:38;;;;;;;14.75;5.88;;;;;;;8.98;100.00;101263.28;5066536;28;20020;-75
2023/10/23 08:15:03;;;;;;;9.63;5.75;;;;;;;9.09;100.00;101259.41;5066576;28;20071;-75
2023/10/23 08:17:29;;;;;;;10.45;5.93;;;;;;;9.18;100.00;101263.66;5045886;28;20511;-75
2023/10/23 08:19:55;;;;;;;13.23;5.75;;;;;;;9.28;100.00;101250.13;5049974;28;20033;-75
2023/10/23 08:22:20;;;;;;;10.75;4.90;;;;;;;9.35;100.00;101256.41;5051420;28;20093;-75
2023/10/23 08:24:46;;;;;;;10.32;5.25;;;;;;;9.42;100.00;101257.31;5049624;28;20029;-74
2023/10/23 08:27:11;;;;;;;10.43;5.50;;;;;;;9.47;100.00;101246.13;5062722;28;20036;-75
2023/10/23 08:29:36;;;;;;;11.57;6.05;;;;;;;9.60;100.00;101245.53;5031666;28;20037;-75
2023/10/23 08:32:03;;;;;;;15.15;5.50;;;;;;;9.68;100.00;101249.94;5063262;28;20036;-75
2023/10/23 08:34:28;;;;;;;11.05;5.50;;;;;;;9.79;100.00;101250.31;5060045;28;20025;-74
2023/10/23 08:36:54;;;;;;;14.00;5.90;;;;;;;9.84;100.00;101247.13;5049318;28;20036;-75
2023/10/23 08:39:19;;;;;;;16.15;5.65;;;;;;;9.88;100.00;101254.56;5056962;28;20035;-75
2023/10/23 08:41:45;;;;;;;10.68;5.20;;;;;;;9.90;100.00;101257.03;5059492;28;20039;-75
2023/10/23 08:44:11;;;;;;;9.65;4.97;;;;;;;9.95;100.00;101259.97;5054607;28;20472;-75
2023/10/23 08:46:37;;;;;;;8.90;5.07;;;;;;;10.01;100.00;101255.78;5054782;28;20360;-75
2023/10/23 08:49:06;;;;;;;7.93;5.13;;;;;;;10.13;100.00;101258.81;5043477;28;20084;-74
2023/10/23 08:51:31;;;;;;;15.63;5.07;;;;;;;10.15;100.00;101254.13;5050270;28;20115;-74
2023/10/23 08:54:08;;;;;;;14.35;6.07;;;;;;;10.25;100.00;101258.16;5068389;28;20433;-75
2023/10/23 08:56:37;;;;;;;14.00;5.22;;;;;;;10.34;100.00;101263.44;5063033;28;20032;-75
2023/10/23 08:59:03;;;;;;;11.32;5.28;;;;;;;10.48;100.00;101271.44;5064365;28;20384;-75
2023/10/23 09:01:29;;;;;;;11.50;6.97;;;;;;;10.53;100.00;101260.19;5052813;28;20029;-75
2023/10/23 09:03:55;;;;;;;13.82;5.40;;;;;;;10.64;100.00;101265.06;5058681;28;20029;-75
2023/10/23 09:06:20;;;;;;;12.40;6.00;;;;;;;10.74;100.00;101265.59;5053388;28;20039;-75
2023/10/23 09:08:46;;;;;;;12.75;6.72;;;;;;;10.79;100.00;101253.50;5054081;28;20025;-75
2023/10/23 09:11:12;;;;;;;15.30;6.28;;;;;;;10.91;100.00;101266.19;5048996;28;20077;-75
2023/10/23 09:13:39;;;;;;;10.77;6.72;;;;;;;11.00;100.00;101258.06;5059094;28;20040;-75
2023/10/23 09:16:06;;;;;;;14.05;6.20;;;;;;;11.05;100.00;101253.78;5035526;28;20124;-75
2023/10/23 09:18:49;;;;;;;12.70;7.05;;;;;;;11.12;100.00;101253.88;5053056;28;20061;-75
2023/10/23 09:21:15;;;;;;;13.15;5.60;;;;;;;11.15;100.00;101248.16;5066192;28;20064;-75
2023/10/23 09:23:55;;;;;;;15.05;5.97;;;;;;;11.22;100.00;101251.72;5049484;28;20426;-75
2023/10/23 09:26:21;;;;;;;12.98;6.35;;;;;;;11.22;100.00;101254.38;5052830;28;20028;-75
2023/10/23 09:28:49;;;;;;;13.45;5.68;;;;;;;11.22;100.00;101251.72;5057423;28;20032;-75
2023/10/23 09:31:16;;;;;;;10.73;5.07;;;;;;;11.28;100.00;101250.94;5046457;28;20040;-75
2023/10/23 09:33:43;;;;;;;12.35;5.60;;;;;;;11.32;100.00;101246.88;5052682;28;20043;-75
2023/10/23 09:36:09;;;;;;;17.67;5.60;;;;;;;11.40;100.00;101251.28;5063451;28;20395;-75
2023/10/23 09:38:35;;;;;;;10.63;5.00;;;;;;;11.43;100.00;101245.53;5060724;28;20036;-75
2023/10/23 09:41:01;;;;;;;14.85;5.38;;;;;;;11.49;100.00;101239.41;5052946;28;20128;-75
2023/10/23 09:43:26;;;;;;;10.45;5.20;;;;;;;11.57;100.00;101238.44;5053386;28;20124;-75
2023/10/23 09:45:52;;;;;;;12.18;5.38;;;;;;;11.59;100.00;101237.25;5067915;28;20472;-75
2023/10/23 09:48:19;;;;;;;11.57;5.60;;;;;;;11.66;100.00;101233.78;5053372;28;20120;-75
2023/10/23 09:50:49;;;;;;;18.42;5.07;;;;;;;11.76;100.00;101226.25;5063179;28;20025;-75
2023/10/23 09:53:16;;;;;;;14.38;5.80;;;;;;;11.77;100.00;101225.25;5054381;28;20112;-75
2023/10/23 09:55:44;;;;;;;10.95;5.65;;;;;;;11.78;100.00;101219.69;5038897;28;20035;-75
2023/10/23 09:58:14;;;;;;;9.18;5.07;;;;;;;11.79;100.00;101217.88;5055343;28;20029;-75
2023/10/23 10:00:43;;;;;;;11.52;4.68;;;;;;;11.80;100.00;101217.66;5055861;28;20025;-75
2023/10/23 10:03:12;;;;;;;11.60;5.05;;;;;;;11.90;100.00;101217.34;5068337;28;20037;-75
2023/10/23 10:06:00;;;;;;;12.00;6.00;;;;;;;11.99;100.00;101215.34;5069210;28;20024;-75
2023/10/23 10:08:34;;;;;;;12.77;6.20;;;;;;;12.04;100.00;101213.72;5063162;28;20048;-75
2023/10/23 10:11:00;;;;;;;14.15;5.82;;;;;;;12.03;100.00;101211.25;5068208;28;20055;-75
2023/10/23 10:13:28;;;;;;;13.25;5.72;;;;;;;12.06;100.00;101210.84;5063604;28;20116;-75
2023/10/23 10:15:54;;;;;;;17.77;6.30;;;;;;;12.12;100.00;101211.91;5052257;28;20476;-75
2023/10/23 10:18:21;;;;;;;13.52;5.25;;;;;;;12.12;100.00;101211.91;5071433;28;20192;-75
2023/10/23 10:20:53;;;;;;;14.07;5.40;;;;;;;12.13;100.00;101217.06;5069042;28;20442;-75
2023/10/23 10:23:19;;;;;;;12.32;5.63;;;;;;;12.17;100.00;101215.63;5065822;28;20024;-75
2023/10/23 10:25:46;;;;;;;9.57;6.72;;;;;;;12.17;100.00;101202.28;5043608;28;20114;-75
2023/10/23 10:28:13;;;;;;;12.93;6.07;;;;;;;12.24;100.00;101213.84;5063393;28;20029;-75
2023/10/23 10:30:49;;;;;;;16.45;5.90;;;;;;;12.29;100.00;101205.22;5058476;28;20031;-74
2023/10/23 10:33:25;;;;;;;17.77;6.20;;;;;;;12.30;100.00;101201.50;5062034;28;20029;-73
2023/10/23 10:36:03;;;;;;;13.32;7.40;;;;;;;12.34;100.00;101181.38;5056203;28;20686;-71
2023/10/23 10:38:30;;;;;;;12.15;6.75;;;;;;;12.40;100.00;101187.78;5049201;28;20460;-73
2023/10/23 10:41:03;;;;;;;19.30;6.60;;;;;;;12.47;100.00;101184.09;5031713;28;20115;-72
2023/10/23 10:43:33;;;;;;;11.30;5.90;;;;;;;12.51;100.00;101181.84;5057420;28;20041;-76
2023/10/23 10:46:12;;;;;;;13.20;6.22;;;;;;;12.53;100.00;101179.78;5064751;28;20122;-71
2023/10/23 10:48:43;;;;;;;14.23;7.43;;;;;;;12.60;100.00;101183.31;5068479;28;20032;-71
2023/10/23 10:51:08;;;;;;;14.68;6.57;;;;;;;12.63;100.00;101177.56;5056609;28;20062;-71
2023/10/23 10:53:38;;;;;;;12.00;4.93;;;;;;;12.69;100.00;101167.88;5042425;28;20136;-72
2023/10/23 10:56:08;;;;;;;13.43;5.25;;;;;;;12.72;100.00;101168.28;5052039;28;20102;-73
2023/10/23 10:58:35;;;;;;;16.70;4.93;;;;;;;12.74;100.00;101162.75;5062725;28;20032;-71
2023/10/23 11:01:02;;;;;;;10.30;4.53;;;;;;;12.79;100.00;101164.81;5058369;28;20383;-74
2023/10/23 11:03:30;;;;;;;9.98;5.30;;;;;;;12.83;100.00;101158.84;5058268;28;20032;-72
2023/10/23 11:05:55;;;;;;;23.58;6.35;;;;;;;12.85;100.00;101150.63;5063056;28;20032;-71
2023/10/23 11:08:21;;;;;;;9.45;4.93;;;;;;;12.87;100.00;101138.69;5070139;28;20854;-71
2023/10/23 11:10:46;;;;;;;15.30;5.53;;;;;;;12.92;100.00;101132.72;5041834;28;20060;-71
2023/10/23 11:13:15;;;;;;;12.55;5.00;;;;;;;12.96;100.00;101131.25;5069943;28;20035;-71
2023/10/23 11:15:41;;;;;;;12.38;4.80;;;;;;;12.99;100.00;101130.84;5051057;28;20040;-71